General Aviation Weather

Text Reports

Enter one or more of the following location identifiers separated by a space:

Zip Code, Four-Character ICAO or Three-Character IATA airport codes.

METAR - Aviation Routine Weather Report
KAIG - Antigo, Wisconsin
Updated at 4:50 AM GMT on August 31, 2015 (11:50 PM CDT):
METAR KAIG 310450Z AUTO 00000KT 1 1/4SM BR VV007 16/16 A3001 RMK AO2 T01600160
TAF - Terminal Area Forecast
KAIG - Antigo, Wisconsin
Updated at 4:50 AM GMT on August 31, 2015 (11:50 PM CDT):
No TAF is currently available for this location.
Decoded:
No decoded TAF is available.
PIREP - Pilot Weather Report
KAIG - Antigo, Wisconsin
Updated at 4:50 AM GMT on August 31, 2015 (11:50 PM CDT):
No PIREP is currently available for this location.
AIRMET - Airmens Meteorological Information
KAIG - Antigo, Wisconsin
Updated at 4:50 AM GMT on August 31, 2015 (11:50 PM CDT):
No AIRMET is currently available for this location.
SIGMET - Significant Meteorological Information
KAIG - Antigo, Wisconsin
Updated at 4:50 AM GMT on August 31, 2015 (11:50 PM CDT):
No SIGMET is currently available for this location.
NOTAM - Notice to Airmen
KAIG - Antigo, Wisconsin
Updated at 4:50 AM GMT on August 31, 2015 (11:50 PM CDT):
No NOTAM is currently available for this location.
Forecast Area
KAIG - Antigo, Wisconsin
Updated at 4:50 AM GMT on August 31, 2015 (11:50 PM CDT):
No NOTAM is currently available for this location.
Aviation Weather Maps